page 2846 of 1011831 registered users

eBook PostsUsers

  1. 0AvepStypeteno registered @ 2011-03-11 08:53:50, last login @ 2011-03-11 08:53:51
  2. 0KenaSteiner registered @ 2011-03-11 08:54:42, last login @ 2011-03-11 08:54:42
  3. 0Waliexini registered @ 2011-03-11 08:54:44, last login @ 2011-03-11 08:54:44
  4. 0handrickz registered @ 2011-03-11 08:56:34, last login @ 2011-03-11 08:56:34
  5. 0juncai132 registered @ 2011-03-11 08:56:49, last login @ 2011-03-11 08:56:49
  6. 0syzerconnor registered @ 2011-03-11 09:01:41, last login @ 2011-03-11 09:16:33
  7. 0fanli registered @ 2011-03-11 09:06:37, last login @ 2011-03-11 09:27:46
  8. 0Jergoloorse registered @ 2011-03-11 09:09:28, last login @ 2011-03-11 09:09:28
  9. 0preetsvany registered @ 2011-03-11 09:11:46, last login @ 2011-03-11 09:11:46
  10. 0zcfofnuaa registered @ 2011-03-11 09:12:50, last login @ 2011-03-11 09:14:21
  11. 0cxuxi registered @ 2011-03-11 09:13:17, last login @ 2011-03-11 09:13:17
  12. 0unreaserlaw registered @ 2011-03-11 09:13:37, last login @ 2011-03-11 09:13:37
  13. 0JWDew registered @ 2011-03-11 09:15:41, last login @ 2011-03-11 09:15:41
  14. 0Seatteker registered @ 2011-03-11 09:16:58, last login @ 2011-03-11 09:16:58
  15. 0k20103 registered @ 2011-03-11 09:17:05, last login @ 2011-03-11 09:17:05
  16. 0lialliesk registered @ 2011-03-11 09:17:22, last login @ 2011-03-11 09:17:22
  17. 0frojabhy registered @ 2011-03-11 09:19:04, last login @ 2011-03-11 09:19:04
  18. 0freecbc3 registered @ 2011-03-11 09:22:13, last login @ 2018-04-17 20:38:49
  19. 0sunny_sea registered @ 2011-03-11 09:23:30, last login @ 2011-03-11 09:23:30
  20. 0fatai3000 registered @ 2011-03-11 09:23:42, last login @ 2011-03-11 09:23:42
  21. 0fred115 registered @ 2011-03-11 09:29:02, last login @ 2011-03-11 09:29:02
  22. 0bushhappyfred registered @ 2011-03-11 09:32:59, last login @ 2011-03-11 09:32:59
  23. 0lancao registered @ 2011-03-11 09:34:02, last login @ 2011-03-11 09:36:10
  24. 0nafsiya registered @ 2011-03-11 09:34:35, last login @ 2011-03-11 09:34:35
  25. 0btr registered @ 2011-03-11 09:34:40, last login @ 2011-03-11 09:34:40
  26. 0konnodoi registered @ 2011-03-11 09:35:01, last login @ 2011-03-11 09:37:44
  27. 0carfie registered @ 2011-03-11 09:36:20, last login @ 2011-03-11 09:36:34
  28. 0bluemoon_tk92 registered @ 2011-03-11 09:38:21, last login @ 2011-03-11 09:38:21
  29. 0LorainePebbles registered @ 2011-03-11 09:38:30, last login @ 2011-03-11 09:38:30
  30. 0kristengrace123 registered @ 2011-03-11 09:40:05, last login @ 2011-03-11 09:54:34
  31. 0pamtsuro registered @ 2011-03-11 09:41:43, last login @ 2011-03-11 09:41:43
  32. 0o28o_frans registered @ 2011-03-11 09:41:59, last login @ 2011-03-11 09:41:59
  33. 0alittleannshop0 registered @ 2011-03-11 09:42:23, last login @ 2011-03-11 09:42:23
  34. 0manisha88 registered @ 2011-03-11 09:43:07, last login @ 2011-03-11 09:48:10
  35. 0swatias registered @ 2011-03-11 09:46:39, last login @ 2011-03-11 09:46:39
  36. 0sudhakrishnan registered @ 2011-03-11 09:49:46, last login @ 2011-03-11 09:49:46
  37. 0Chongjimenez registered @ 2011-03-11 09:50:24, last login @ 2011-03-11 09:50:24
  38. 0appleish registered @ 2011-03-11 09:50:24, last login @ 2011-03-11 09:50:24
  39. 0Fierserurah registered @ 2011-03-11 09:53:41, last login @ 2011-03-11 09:53:41
  40. 0xuezhiye registered @ 2011-03-11 09:53:42, last login @ 2011-03-11 09:57:00
  41. 0derron registered @ 2011-03-11 09:54:34, last login @ 2011-03-11 09:54:34
  42. 0harshvardhan registered @ 2011-03-11 09:54:35, last login @ 2011-03-11 09:54:35
  43. 0eliaegg registered @ 2011-03-11 09:55:41, last login @ 2011-03-11 09:55:41
  44. 0xucwang registered @ 2011-03-11 09:55:46, last login @ 2011-03-11 09:55:46
  45. 0mdrazi123 registered @ 2011-03-11 10:00:00, last login @ 2011-03-11 10:00:00
  46. 0andromede13 registered @ 2011-03-11 10:01:31, last login @ 2011-03-11 10:01:31
  47. 0imtemplogin registered @ 2011-03-11 10:02:59, last login @ 2011-03-11 10:02:59
  48. 0aleh registered @ 2011-03-11 10:03:35, last login @ 2011-03-11 10:03:35
  49. 0atoka registered @ 2011-03-11 10:04:57, last login @ 2011-03-11 10:04:57
  50. 0pamperedpup registered @ 2011-03-11 10:06:39, last login @ 2011-03-11 10:06:48
  51. 0ghania registered @ 2011-03-11 10:08:24, last login @ 2011-03-11 10:08:24
  52. 0liuhaoyushiny registered @ 2011-03-11 10:08:55, last login @ 2011-03-11 10:08:55
  53. 0weimeiedu registered @ 2011-03-11 10:11:34, last login @ 2011-03-11 10:11:34
  54. 0Chinu1 registered @ 2011-03-11 10:12:03, last login @ 2011-03-11 10:12:03
  55. 0phoebe58 registered @ 2011-03-11 10:16:59, last login @ 2011-03-11 10:16:59
  56. 0korax_3 registered @ 2011-03-11 10:17:39, last login @ 2011-03-11 10:17:39
  57. 0impress registered @ 2011-03-11 10:18:41, last login @ 2011-03-11 10:21:07
  58. 0GuillermoThacker registered @ 2011-03-11 10:19:25, last login @ 2011-03-11 10:19:25
  59. 0snita registered @ 2011-03-11 10:19:34, last login @ 2011-03-11 10:23:56
  60. 0ShineyRajan registered @ 2011-03-11 10:21:44, last login @ 2011-03-11 10:22:23
  61. 0pupapink registered @ 2011-03-11 10:22:40, last login @ 2011-03-11 10:22:40
  62. 0vimal_patel registered @ 2011-03-11 10:24:10, last login @ 2011-03-11 10:24:10
  63. 0arra50 registered @ 2011-03-11 10:26:27, last login @ 2011-03-11 10:26:27
  64. 0tbthapa registered @ 2011-03-11 10:26:30, last login @ 2011-03-11 10:26:30
  65. 0jesse1313 registered @ 2011-03-11 10:28:20, last login @ 2011-03-11 10:28:20
  66. 0khurram_022 registered @ 2011-03-11 10:32:38, last login @ 2011-03-11 10:32:38
  67. 0cekwonu registered @ 2011-03-11 10:38:37, last login @ 2011-03-11 10:39:28
  68. 0SrNecromancer registered @ 2011-03-11 10:39:48, last login @ 2011-03-11 10:39:48
  69. 0heterocycle registered @ 2011-03-11 10:43:16, last login @ 2011-03-11 10:43:16
  70. 0kawairashi registered @ 2011-03-11 10:43:32, last login @ 2011-03-11 10:43:32
  71. 0ananda1990 registered @ 2011-03-11 10:45:18, last login @ 2011-03-11 10:45:18
  72. 0Rickis registered @ 2011-03-11 10:48:33, last login @ 2011-03-11 10:48:33
  73. 0SenIssuetatal registered @ 2011-03-11 10:49:42, last login @ 2011-03-11 10:49:42
  74. 027qqzhang registered @ 2011-03-11 10:52:49, last login @ 2011-03-11 10:52:49
  75. 0wenjing501 registered @ 2011-03-11 10:54:50, last login @ 2011-03-11 10:55:03
  76. 0ScamnEmpacheev registered @ 2011-03-11 10:55:32, last login @ 2011-03-11 10:55:32
  77. 0FAWKESFAWKES registered @ 2011-03-11 10:58:38, last login @ 2011-03-11 10:58:38
  78. 0DanielMunks registered @ 2011-03-11 11:02:14, last login @ 2011-03-11 11:02:14
  79. 0savalan registered @ 2011-03-11 11:03:22, last login @ 2011-03-11 11:03:38
  80. 0fibrasiah registered @ 2011-03-11 11:04:01, last login @ 2011-03-11 11:04:01
  81. 0jubin89 registered @ 2011-03-11 11:04:02, last login @ 2011-03-11 11:04:02
  82. 0oladimejifolakunnmi registered @ 2011-03-11 11:07:05, last login @ 2011-03-11 11:07:05
  83. 0azliht registered @ 2011-03-11 11:10:45, last login @ 2011-03-11 11:10:45
  84. 0annyhathaway registered @ 2011-03-11 11:12:39, last login @ 2011-03-11 11:17:10
  85. 0CageWainnaTet registered @ 2011-03-11 11:14:37, last login @ 2011-03-11 11:14:37
  86. 0hestenot registered @ 2011-03-11 11:14:50, last login @ 2011-03-11 11:17:16
  87. 0maiyappan registered @ 2011-03-11 11:16:20, last login @ 2011-03-11 11:16:20
  88. 0miko84 registered @ 2011-03-11 11:18:39, last login @ 2011-03-11 11:19:22
  89. 0sexy74 registered @ 2011-03-11 11:22:45, last login @ 2011-03-11 11:22:45
  90. 0amsay registered @ 2011-03-11 11:22:55, last login @ 2011-03-11 11:22:55
  91. 0tfarjam registered @ 2011-03-11 11:24:16, last login @ 2011-03-11 11:24:16
  92. 00a1a3a9a registered @ 2011-03-11 11:30:52, last login @ 2011-03-11 11:30:52
  93. 0aditramadhan registered @ 2011-03-11 11:31:19, last login @ 2011-03-11 11:31:19
  94. 0bobqyfeng registered @ 2011-03-11 11:31:26, last login @ 2011-03-11 11:31:45
  95. 0DonSewell registered @ 2011-03-11 11:32:43, last login @ 2011-03-11 11:32:43
  96. 0skytop21 registered @ 2011-03-11 11:33:30, last login @ 2011-03-11 11:33:30
  97. 0wf950126 registered @ 2011-03-11 11:34:47, last login @ 2011-03-11 11:36:03
  98. 0dayoadegbola registered @ 2011-03-11 11:36:40, last login @ 2011-03-11 11:58:16
  99. 0HGilly registered @ 2011-03-11 11:37:18, last login @ 2011-03-11 11:37:18
  100. 0sonyadixit registered @ 2011-03-11 11:37:57, last login @ 2011-03-11 11:37:57
  101. 0mkagunda registered @ 2011-03-11 11:39:10, last login @ 2011-03-11 11:39:10

More...

[2856] [2855] [2854] [2853] [2852] [2851] [2850] [2849] [2848] [2847] [2846] [2845] [2844] [2843] [2842] [2841] [2840] [2839] [2838] [2837] ...[1]
Back to Top